sensor_id;sensor_type;location;lat;lon;timestamp;pressure;altitude;pressure_sealevel;temperature;humidity
11041;BME280;5573;49.592;8.662;2023-04-28T00:02:23;99657.69;;;13.34;62.41
11041;BME280;5573;49.592;8.662;2023-04-28T00:04:52;99654.91;;;13.41;62.08
11041;BME280;5573;49.592;8.662;2023-04-28T00:07:22;99653.31;;;13.40;59.75
11041;BME280;5573;49.592;8.662;2023-04-28T00:09:50;99662.28;;;13.59;60.74
11041;BME280;5573;49.592;8.662;2023-04-28T00:12:18;99663.50;;;13.54;63.00
11041;BME280;5573;49.592;8.662;2023-04-28T00:14:46;99667.41;;;13.60;62.02
11041;BME280;5573;49.592;8.662;2023-04-28T00:17:13;99669.25;;;13.74;61.67
11041;BME280;5573;49.592;8.662;2023-04-28T00:19:41;99678.75;;;13.77;59.85
11041;BME280;5573;49.592;8.662;2023-04-28T00:22:09;99671.91;;;13.89;60.32
11041;BME280;5573;49.592;8.662;2023-04-28T00:24:38;99673.91;;;13.85;69.10
11041;BME280;5573;49.592;8.662;2023-04-28T00:27:07;99658.75;;;13.55;80.76
11041;BME280;5573;49.592;8.662;2023-04-28T00:29:34;99658.94;;;13.15;93.55
11041;BME280;5573;49.592;8.662;2023-04-28T00:32:03;99647.28;;;12.82;100.00
11041;BME280;5573;49.592;8.662;2023-04-28T00:34:32;99636.75;;;12.45;100.00
11041;BME280;5573;49.592;8.662;2023-04-28T00:37:02;99632.06;;;12.35;100.00
11041;BME280;5573;49.592;8.662;2023-04-28T00:39:30;99617.16;;;12.14;100.00
11041;BME280;5573;49.592;8.662;2023-04-28T00:41:59;99636.44;;;11.93;100.00
11041;BME280;5573;49.592;8.662;2023-04-28T00:44:27;99610.47;;;11.72;100.00
11041;BME280;5573;49.592;8.662;2023-04-28T00:46:57;99599.81;;;11.53;100.00
11041;BME280;5573;49.592;8.662;2023-04-28T00:49:25;99584.50;;;11.55;100.00
11041;BME280;5573;49.592;8.662;2023-04-28T00:51:53;99588.41;;;11.54;100.00
11041;BME280;5573;49.592;8.662;2023-04-28T00:54:21;99586.84;;;11.68;100.00
11041;BME280;5573;49.592;8.662;2023-04-28T00:56:49;99573.47;;;11.66;100.00
11041;BME280;5573;49.592;8.662;2023-04-28T00:59:18;99576.59;;;11.72;100.00
11041;BME280;5573;49.592;8.662;2023-04-28T01:01:46;99577.38;;;11.79;100.00
11041;BME280;5573;49.592;8.662;2023-04-28T01:04:14;99545.13;;;11.62;100.00
11041;BME280;5573;49.592;8.662;2023-04-28T01:06:45;99567.94;;;11.80;100.00
11041;BME280;5573;49.592;8.662;2023-04-28T01:09:13;99564.00;;;11.85;100.00
11041;BME280;5573;49.592;8.662;2023-04-28T01:11:41;99555.31;;;11.87;100.00
11041;BME280;5573;49.592;8.662;2023-04-28T01:14:10;99556.13;;;11.94;100.00
11041;BME280;5573;49.592;8.662;2023-04-28T01:16:41;99511.25;;;11.79;100.00
11041;BME280;5573;49.592;8.662;2023-04-28T01:19:15;99547.84;;;12.09;100.00
11041;BME280;5573;49.592;8.662;2023-04-28T01:21:44;99542.31;;;12.09;100.00
11041;BME280;5573;49.592;8.662;2023-04-28T01:24:19;99538.72;;;12.26;100.00
11041;BME280;5573;49.592;8.662;2023-04-28T01:26:47;99544.22;;;12.30;100.00
11041;BME280;5573;49.592;8.662;2023-04-28T01:29:14;99544.59;;;12.32;100.00
11041;BME280;5573;49.592;8.662;2023-04-28T01:31:42;99545.38;;;12.36;100.00
11041;BME280;5573;49.592;8.662;2023-04-28T01:34:10;99530.38;;;12.44;99.79
11041;BME280;5573;49.592;8.662;2023-04-28T01:36:37;99525.63;;;12.45;100.00
11041;BME280;5573;49.592;8.662;2023-04-28T01:39:05;99504.00;;;12.32;94.35
11041;BME280;5573;49.592;8.662;2023-04-28T01:41:34;99529.16;;;12.52;92.25
11041;BME280;5573;49.592;8.662;2023-04-28T01:44:03;99533.03;;;12.62;93.80
11041;BME280;5573;49.592;8.662;2023-04-28T01:46:33;99527.44;;;12.73;97.35
11041;BME280;5573;49.592;8.662;2023-04-28T01:49:01;99534.53;;;12.77;91.27
11041;BME280;5573;49.592;8.662;2023-04-28T01:51:29;99530.53;;;12.86;91.73
11041;BME280;5573;49.592;8.662;2023-04-28T01:53:58;99545.09;;;12.93;84.23
11041;BME280;5573;49.592;8.662;2023-04-28T01:56:26;99535.94;;;13.04;78.62
11041;BME280;5573;49.592;8.662;2023-04-28T01:58:56;99539.31;;;13.26;77.28
11041;BME280;5573;49.592;8.662;2023-04-28T02:01:24;99535.72;;;13.39;79.58
11041;BME280;5573;49.592;8.662;2023-04-28T02:03:53;99541.97;;;13.47;75.09
11041;BME280;5573;49.592;8.662;2023-04-28T02:06:22;99540.19;;;13.68;75.12
11041;BME280;5573;49.592;8.662;2023-04-28T02:08:50;99543.28;;;13.77;73.03
11041;BME280;5573;49.592;8.662;2023-04-28T02:11:17;99537.66;;;13.84;73.46
11041;BME280;5573;49.592;8.662;2023-04-28T02:13:45;99526.22;;;13.82;78.19
11041;BME280;5573;49.592;8.662;2023-04-28T02:16:14;99533.91;;;13.63;84.24
11041;BME280;5573;49.592;8.662;2023-04-28T02:18:42;99534.22;;;13.73;84.69
11041;BME280;5573;49.592;8.662;2023-04-28T02:21:10;99523.22;;;13.66;88.78
11041;BME280;5573;49.592;8.662;2023-04-28T02:23:39;99537.03;;;13.66;89.80
11041;BME280;5573;49.592;8.662;2023-04-28T02:26:07;99545.78;;;13.60;91.64
11041;BME280;5573;49.592;8.662;2023-04-28T02:28:34;99541.97;;;13.47;92.16
11041;BME280;5573;49.592;8.662;2023-04-28T02:31:05;99547.53;;;13.40;100.00
11041;BME280;5573;49.592;8.662;2023-04-28T02:33:34;99507.91;;;13.09;100.00
11041;BME280;5573;49.592;8.662;2023-04-28T02:36:04;99530.28;;;13.21;100.00
11041;BME280;5573;49.592;8.662;2023-04-28T02:38:32;99533.88;;;13.18;100.00
11041;BME280;5573;49.592;8.662;2023-04-28T02:41:02;99557.66;;;12.98;100.00
11041;BME280;5573;49.592;8.662;2023-04-28T02:43:30;99574.25;;;12.98;100.00
11041;BME280;5573;49.592;8.662;2023-04-28T02:45:58;99576.59;;;12.99;100.00
11041;BME280;5573;49.592;8.662;2023-04-28T02:48:26;99569.22;;;12.82;100.00
11041;BME280;5573;49.592;8.662;2023-04-28T02:50:55;99565.31;;;12.72;100.00
11041;BME280;5573;49.592;8.662;2023-04-28T02:53:23;99561.06;;;12.50;100.00
11041;BME280;5573;49.592;8.662;2023-04-28T02:55:51;99549.66;;;12.48;100.00
11041;BME280;5573;49.592;8.662;2023-04-28T02:58:19;99560.72;;;12.37;100.00
11041;BME280;5573;49.592;8.662;2023-04-28T03:00:47;99554.13;;;12.16;100.00
11041;BME280;5573;49.592;8.662;2023-04-28T03:03:16;99549.03;;;11.97;100.00
11041;BME280;5573;49.592;8.662;2023-04-28T03:05:44;99549.03;;;11.86;100.00
11041;BME280;5573;49.592;8.662;2023-04-28T03:08:13;99544.28;;;11.87;100.00
11041;BME280;5573;49.592;8.662;2023-04-28T03:10:41;99535.25;;;11.83;100.00
11041;BME280;5573;49.592;8.662;2023-04-28T03:13:10;99538.00;;;11.83;100.00
11041;BME280;5573;49.592;8.662;2023-04-28T03:15:38;99532.91;;;11.74;100.00
11041;BME280;5573;49.592;8.662;2023-04-28T03:18:06;99528.19;;;11.71;100.00
11041;BME280;5573;49.592;8.662;2023-04-28T03:20:33;99521.91;;;11.67;100.00
11041;BME280;5573;49.592;8.662;2023-04-28T03:23:01;99513.63;;;11.67;100.00
11041;BME280;5573;49.592;8.662;2023-04-28T03:25:31;99510.88;;;11.67;100.00
11041;BME280;5573;49.592;8.662;2023-04-28T03:27:59;99496.34;;;11.45;100.00
11041;BME280;5573;49.592;8.662;2023-04-28T03:30:27;99497.94;;;11.38;100.00
11041;BME280;5573;49.592;8.662;2023-04-28T03:32:56;99496.75;;;11.43;100.00
11041;BME280;5573;49.592;8.662;2023-04-28T03:35:24;99483.38;;;11.38;100.00
11041;BME280;5573;49.592;8.662;2023-04-28T03:37:52;99471.19;;;11.35;100.00
11041;BME280;5573;49.592;8.662;2023-04-28T03:40:20;99481.00;;;11.44;100.00
11041;BME280;5573;49.592;8.662;2023-04-28T03:43:21;99482.59;;;11.41;100.00
11041;BME280;5573;49.592;8.662;2023-04-28T03:46:09;99476.69;;;11.43;100.00
11041;BME280;5573;49.592;8.662;2023-04-28T03:48:37;99471.56;;;11.34;100.00
11041;BME280;5573;49.592;8.662;2023-04-28T03:51:05;99469.19;;;11.36;100.00
11041;BME280;5573;49.592;8.662;2023-04-28T03:53:33;99470.78;;;11.37;100.00
11041;BME280;5573;49.592;8.662;2023-04-28T03:56:01;99467.63;;;11.28;100.00
11041;BME280;5573;49.592;8.662;2023-04-28T03:58:30;99462.53;;;11.26;100.00
11041;BME280;5573;49.592;8.662;2023-04-28T04:00:59;99450.72;;;11.36;100.00
11041;BME280;5573;49.592;8.662;2023-04-28T04:03:27;99447.97;;;11.36;100.00
11041;BME280;5573;49.592;8.662;2023-04-28T04:05:55;99447.19;;;11.43;100.00
11041;BME280;5573;49.592;8.662;2023-04-28T04:08:23;99455.03;;;11.48;100.00
11041;BME280;5573;49.592;8.662;2023-04-28T04:10:52;99455.81;;;11.49;100.00
11041;BME280;5573;49.592;8.662;2023-04-28T04:13:20;99457.00;;;11.51;100.00
11041;BME280;5573;49.592;8.662;2023-04-28T04:15:50;99455.41;;;11.57;100.00
11041;BME280;5573;49.592;8.662;2023-04-28T04:18:20;99445.56;;;11.53;100.00
11041;BME280;5573;49.592;8.662;2023-04-28T04:21:11;99450.72;;;11.36;100.00
11041;BME280;5573;49.592;8.662;2023-04-28T04:23:39;99447.56;;;11.45;100.00
11041;BME280;5573;49.592;8.662;2023-04-28T04:26:06;99449.50;;;11.45;100.00
11041;BME280;5573;49.592;8.662;2023-04-28T04:28:35;99461.72;;;11.44;100.00
11041;BME280;5573;49.592;8.662;2023-04-28T04:31:05;99458.16;;;11.57;100.00
11041;BME280;5573;49.592;8.662;2023-04-28T04:33:34;99455.81;;;11.52;100.00
11041;BME280;5573;49.592;8.662;2023-04-28T04:36:04;99454.59;;;11.60;100.00
11041;BME280;5573;49.592;8.662;2023-04-28T04:38:32;99460.88;;;11.72;100.00
11041;BME280;5573;49.592;8.662;2023-04-28T04:41:10;99471.91;;;11.65;100.00
11041;BME280;5573;49.592;8.662;2023-04-28T04:43:38;99472.72;;;11.51;100.00
11041;BME280;5573;49.592;8.662;2023-04-28T04:46:07;99480.19;;;11.65;100.00
11041;BME280;5573;49.592;8.662;2023-04-28T04:48:35;99481.31;;;11.85;100.00
11041;BME280;5573;49.592;8.662;2023-04-28T04:51:03;99478.13;;;12.01;100.00
11041;BME280;5573;49.592;8.662;2023-04-28T04:53:32;99483.22;;;12.10;100.00
11041;BME280;5573;49.592;8.662;2023-04-28T04:55:59;99471.88;;;11.93;100.00
11041;BME280;5573;49.592;8.662;2023-04-28T04:58:28;99479.75;;;11.91;100.00
11041;BME280;5573;49.592;8.662;2023-04-28T05:01:12;99481.72;;;11.91;100.00
11041;BME280;5573;49.592;8.662;2023-04-28T05:03:41;99470.69;;;11.87;100.00
11041;BME280;5573;49.592;8.662;2023-04-28T05:06:09;99462.38;;;12.05;100.00
11041;BME280;5573;49.592;8.662;2023-04-28T05:08:43;99457.22;;;12.11;100.00
11041;BME280;5573;49.592;8.662;2023-04-28T05:11:11;99465.50;;;12.07;100.00
11041;BME280;5573;49.592;8.662;2023-04-28T05:13:40;99456.09;;;12.01;100.00
11041;BME280;5573;49.592;8.662;2023-04-28T05:16:08;99452.88;;;12.13;100.00
11041;BME280;5573;49.592;8.662;2023-04-28T05:19:15;99453.59;;;12.25;100.00
11041;BME280;5573;49.592;8.662;2023-04-28T05:21:43;99444.94;;;12.26;100.00
11041;BME280;5573;49.592;8.662;2023-04-28T05:24:13;99451.28;;;12.23;100.00
11041;BME280;5573;49.592;8.662;2023-04-28T05:26:41;99442.19;;;12.30;100.00
11041;BME280;5573;49.592;8.662;2023-04-28T05:29:09;99454.75;;;12.34;100.00
11041;BME280;5573;49.592;8.662;2023-04-28T05:31:37;99461.47;;;12.33;100.00
11041;BME280;5573;49.592;8.662;2023-04-28T05:34:05;99465.78;;;12.34;100.00
11041;BME280;5573;49.592;8.662;2023-04-28T05:36:34;99467.72;;;12.41;100.00
11041;BME280;5573;49.592;8.662;2023-04-28T05:39:04;99473.63;;;12.39;100.00
11041;BME280;5573;49.592;8.662;2023-04-28T05:41:34;99472.84;;;12.43;100.00
11041;BME280;5573;49.592;8.662;2023-04-28T05:44:02;99472.91;;;12.32;100.00
11041;BME280;5573;49.592;8.662;2023-04-28T05:46:30;99460.75;;;12.15;100.00
11041;BME280;5573;49.592;8.662;2023-04-28T05:48:59;99455.22;;;12.22;100.00
11041;BME280;5573;49.592;8.662;2023-04-28T05:51:32;99462.66;;;12.32;100.00
11041;BME280;5573;49.592;8.662;2023-04-28T05:54:02;99457.50;;;12.34;100.00
11041;BME280;5573;49.592;8.662;2023-04-28T05:56:34;99445.38;;;12.17;100.00
11041;BME280;5573;49.592;8.662;2023-04-28T05:59:02;99459.84;;;12.39;100.00
11041;BME280;5573;49.592;8.662;2023-04-28T06:01:30;99463.84;;;12.28;100.00
11041;BME280;5573;49.592;8.662;2023-04-28T06:03:58;99469.03;;;12.11;100.00
11041;BME280;5573;49.592;8.662;2023-04-28T06:06:27;99470.88;;;12.39;100.00
11041;BME280;5573;49.592;8.662;2023-04-28T06:08:54;99473.63;;;12.39;100.00
11041;BME280;5573;49.592;8.662;2023-04-28T06:11:25;99482.66;;;12.44;100.00
11041;BME280;5573;49.592;8.662;2023-04-28T06:13:53;99476.38;;;12.39;100.00
11041;BME280;5573;49.592;8.662;2023-04-28T06:16:21;99484.97;;;12.56;100.00
11041;BME280;5573;49.592;8.662;2023-04-28T06:18:49;99494.13;;;12.42;100.00
11041;BME280;5573;49.592;8.662;2023-04-28T06:21:18;99494.50;;;12.44;100.00
11041;BME280;5573;49.592;8.662;2023-04-28T06:23:47;99493.69;;;12.47;100.00
11041;BME280;5573;49.592;8.662;2023-04-28T06:26:15;99488.25;;;12.33;100.00
11041;BME280;5573;49.592;8.662;2023-04-28T06:28:45;99490.22;;;12.32;100.00
11041;BME280;5573;49.592;8.662;2023-04-28T06:31:13;99485.19;;;12.16;100.00
11041;BME280;5573;49.592;8.662;2023-04-28T06:33:41;99474.91;;;12.20;100.00
11041;BME280;5573;49.592;8.662;2023-04-28T06:39:04;99484.25;;;12.45;100.00
11041;BME280;5573;49.592;8.662;2023-04-28T06:41:32;99468.97;;;12.29;100.00
11041;BME280;5573;49.592;8.662;2023-04-28T06:44:04;99473.25;;;12.37;100.00
11041;BME280;5573;49.592;8.662;2023-04-28T06:46:33;99478.41;;;12.35;100.00
11041;BME280;5573;49.592;8.662;2023-04-28T06:49:01;99353.09;;;11.55;100.00
11041;BME280;5573;49.592;8.662;2023-04-28T06:51:30;99484.66;;;12.39;100.00
11041;BME280;5573;49.592;8.662;2023-04-28T06:53:58;99485.91;;;12.24;100.00
11041;BME280;5573;49.592;8.662;2023-04-28T06:56:26;99479.63;;;12.20;100.00
11041;BME280;5573;49.592;8.662;2023-04-28T06:58:55;99473.69;;;12.32;100.00
11041;BME280;5573;49.592;8.662;2023-04-28T07:01:25;99471.72;;;12.29;100.00
11041;BME280;5573;49.592;8.662;2023-04-28T07:03:53;99465.47;;;12.18;100.00
11041;BME280;5573;49.592;8.662;2023-04-28T07:06:21;99472.84;;;12.39;100.00
11041;BME280;5573;49.592;8.662;2023-04-28T07:08:49;99483.50;;;12.40;100.00
11041;BME280;5573;49.592;8.662;2023-04-28T07:11:17;99478.03;;;12.26;100.00
11041;BME280;5573;49.592;8.662;2023-04-28T07:13:44;99473.72;;;12.18;100.00
11041;BME280;5573;49.592;8.662;2023-04-28T07:16:14;99452.59;;;11.93;100.00
11041;BME280;5573;49.592;8.662;2023-04-28T07:18:44;99472.97;;;12.14;100.00
11041;BME280;5573;49.592;8.662;2023-04-28T07:21:11;99466.94;;;12.37;100.00
11041;BME280;5573;49.592;8.662;2023-04-28T07:23:39;99476.88;;;12.27;100.00
11041;BME280;5573;49.592;8.662;2023-04-28T07:26:07;99480.78;;;12.30;100.00
11041;BME280;5573;49.592;8.662;2023-04-28T07:28:35;99471.72;;;12.29;100.00
11041;BME280;5573;49.592;8.662;2023-04-28T07:31:02;99476.44;;;12.36;100.00
11041;BME280;5573;49.592;8.662;2023-04-28T07:33:30;99476.75;;;12.45;100.00
11041;BME280;5573;49.592;8.662;2023-04-28T07:35:59;99466.94;;;12.40;100.00
11041;BME280;5573;49.592;8.662;2023-04-28T07:38:27;99471.63;;;12.47;100.00
11041;BME280;5573;49.592;8.662;2023-04-28T07:40:56;99479.56;;;12.34;100.00
11041;BME280;5573;49.592;8.662;2023-04-28T07:43:24;99471.63;;;12.44;100.00
11041;BME280;5573;49.592;8.662;2023-04-28T07:45:51;99470.41;;;12.52;100.00
11041;BME280;5573;49.592;8.662;2023-04-28T07:48:19;99449.63;;;12.36;100.00
11041;BME280;5573;49.592;8.662;2023-04-28T07:50:47;99445.63;;;12.48;100.00
11041;BME280;5573;49.592;8.662;2023-04-28T07:53:16;99456.69;;;12.45;100.00
11041;BME280;5573;49.592;8.662;2023-04-28T07:55:44;99447.50;;;12.62;100.00
11041;BME280;5573;49.592;8.662;2023-04-28T07:58:12;99460.41;;;12.76;100.00
11041;BME280;5573;49.592;8.662;2023-04-28T08:00:40;99466.03;;;12.58;100.00
11041;BME280;5573;49.592;8.662;2023-04-28T08:03:07;99472.41;;;12.51;100.00
11041;BME280;5573;49.592;8.662;2023-04-28T08:05:37;99469.31;;;12.42;100.00
11041;BME280;5573;49.592;8.662;2023-04-28T08:08:05;99464.94;;;12.45;100.00
11041;BME280;5573;49.592;8.662;2023-04-28T08:10:34;99451.34;;;12.75;100.00
11041;BME280;5573;49.592;8.662;2023-04-28T08:13:01;99451.69;;;12.81;100.00
11041;BME280;5573;49.592;8.662;2023-04-28T08:15:29;99463.50;;;12.89;100.00
11041;BME280;5573;49.592;8.662;2023-04-28T08:17:57;99472.09;;;12.94;100.00
11041;BME280;5573;49.592;8.662;2023-04-28T08:20:25;99464.19;;;13.00;100.00
11041;BME280;5573;49.592;8.662;2023-04-28T08:22:53;99474.84;;;12.98;100.00
11041;BME280;5573;49.592;8.662;2023-04-28T08:25:21;99471.69;;;12.99;100.00
11041;BME280;5573;49.592;8.662;2023-04-28T08:27:50;99471.69;;;12.96;100.00
11041;BME280;5573;49.592;8.662;2023-04-28T08:30:18;99465.63;;;13.15;100.00
11041;BME280;5573;49.592;8.662;2023-04-28T08:32:46;99469.31;;;12.98;100.00
11041;BME280;5573;49.592;8.662;2023-04-28T08:35:13;99478.19;;;13.23;100.00
11041;BME280;5573;49.592;8.662;2023-04-28T08:37:41;99476.25;;;13.20;100.00
11041;BME280;5573;49.592;8.662;2023-04-28T08:40:10;99475.13;;;13.11;100.00
11041;BME280;5573;49.592;8.662;2023-04-28T08:42:38;99483.25;;;13.32;100.00
11041;BME280;5573;49.592;8.662;2023-04-28T08:45:11;99475.81;;;13.29;100.00
11041;BME280;5573;49.592;8.662;2023-04-28T08:47:40;99487.09;;;13.49;100.00
11041;BME280;5573;49.592;8.662;2023-04-28T08:50:12;99497.75;;;13.47;100.00
11041;BME280;5573;49.592;8.662;2023-04-28T08:52:41;99492.44;;;13.63;100.00
11041;BME280;5573;49.592;8.662;2023-04-28T08:55:11;99485.59;;;13.79;100.00
11041;BME280;5573;49.592;8.662;2023-04-28T08:57:42;99483.50;;;13.90;100.00
11041;BME280;5573;49.592;8.662;2023-04-28T09:00:12;99476.84;;;13.84;100.00
11041;BME280;5573;49.592;8.662;2023-04-28T09:02:40;99485.53;;;13.82;100.00
11041;BME280;5573;49.592;8.662;2023-04-28T09:05:09;99482.28;;;13.91;100.00
11041;BME280;5573;49.592;8.662;2023-04-28T09:07:38;99482.97;;;14.02;100.00
11041;BME280;5573;49.592;8.662;2023-04-28T09:10:19;99485.50;;;13.86;100.00
11041;BME280;5573;49.592;8.662;2023-04-28T09:12:51;99482.34;;;13.88;100.00
11041;BME280;5573;49.592;8.662;2023-04-28T09:15:28;99492.53;;;13.94;100.00
11041;BME280;5573;49.592;8.662;2023-04-28T09:17:59;99492.97;;;13.89;100.00
11041;BME280;5573;49.592;8.662;2023-04-28T09:20:30;99490.72;;;14.15;100.00
11041;BME280;5573;49.592;8.662;2023-04-28T09:23:12;99495.81;;;14.16;100.00
11041;BME280;5573;49.592;8.662;2023-04-28T09:25:40;99496.69;;;14.10;100.00
11041;BME280;5573;49.592;8.662;2023-04-28T09:28:21;99499.72;;;13.88;100.00
11041;BME280;5573;49.592;8.662;2023-04-28T09:30:50;99493.66;;;14.00;100.00
11041;BME280;5573;49.592;8.662;2023-04-28T09:33:18;99502.81;;;13.94;100.00
11041;BME280;5573;49.592;8.662;2023-04-28T09:35:47;99494.28;;;13.81;100.00
11041;BME280;5573;49.592;8.662;2023-04-28T09:38:15;99500.56;;;13.81;100.00
11041;BME280;5573;49.592;8.662;2023-04-28T09:40:53;99494.41;;;13.67;100.00
11041;BME280;5573;49.592;8.662;2023-04-28T09:43:26;99496.66;;;13.79;100.00
11041;BME280;5573;49.592;8.662;2023-04-28T09:45:57;99498.16;;;13.87;100.00
11041;BME280;5573;49.592;8.662;2023-04-28T09:48:27;99505.31;;;13.81;100.00
11041;BME280;5573;49.592;8.662;2023-04-28T09:50:55;99501.50;;;13.68;100.00
11041;BME280;5573;49.592;8.662;2023-04-28T09:53:25;99498.22;;;13.80;100.00
11041;BME280;5573;49.592;8.662;2023-04-28T09:55:54;99499.81;;;13.77;100.00
11041;BME280;5573;49.592;8.662;2023-04-28T09:58:24;99503.56;;;13.98;100.00
11041;BME280;5573;49.592;8.662;2023-04-28T10:00:53;99509.78;;;14.06;100.00
11041;BME280;5573;49.592;8.662;2023-04-28T10:03:23;99504.88;;;13.86;100.00
11041;BME280;5573;49.592;8.662;2023-04-28T10:05:55;99513.66;;;13.77;100.00
11041;BME280;5573;49.592;8.662;2023-04-28T10:08:25;99507.59;;;13.90;100.00
11041;BME280;5573;49.592;8.662;2023-04-28T10:10:54;99511.44;;;13.99;100.00
11041;BME280;5573;49.592;8.662;2023-04-28T10:13:23;99508.38;;;14.24;100.00
11041;BME280;5573;49.592;8.662;2023-04-28T10:15:51;99494.03;;;14.02;100.00
11041;BME280;5573;49.592;8.662;2023-04-28T10:18:22;99498.09;;;14.25;100.00
11041;BME280;5573;49.592;8.662;2023-04-28T10:20:53;99497.22;;;14.32;100.00
11041;BME280;5573;49.592;8.662;2023-04-28T10:23:41;99495.41;;;14.18;100.00
11041;BME280;5573;49.592;8.662;2023-04-28T10:26:14;99493.41;;;14.22;100.00
11041;BME280;5573;49.592;8.662;2023-04-28T10:28:45;99501.59;;;14.29;100.00
11041;BME280;5573;49.592;8.662;2023-04-28T10:31:14;99491.97;;;14.41;100.00
11041;BME280;5573;49.592;8.662;2023-04-28T10:33:44;99496.91;;;14.26;100.00
11041;BME280;5573;49.592;8.662;2023-04-28T10:36:46;99495.00;;;14.50;100.00
11041;BME280;5573;49.592;8.662;2023-04-28T10:39:14;99498.34;;;14.38;100.00
11041;BME280;5573;49.592;8.662;2023-04-28T10:41:44;99492.09;;;14.30;100.00
11041;BME280;5573;49.592;8.662;2023-04-28T10:44:42;99504.19;;;14.43;100.00
11041;BME280;5573;49.592;8.662;2023-04-28T10:47:10;99491.34;;;14.30;100.00
11041;BME280;5573;49.592;8.662;2023-04-28T10:50:05;99493.28;;;14.29;100.00
11041;BME280;5573;49.592;8.662;2023-04-28T10:52:48;99482.38;;;14.49;100.00
11041;BME280;5573;49.592;8.662;2023-04-28T10:55:27;99477.97;;;14.52;100.00
11041;BME280;5573;49.592;8.662;2023-04-28T10:58:31;99475.53;;;14.61;100.00
11041;BME280;5573;49.592;8.662;2023-04-28T11:01:24;99475.38;;;14.99;100.00
11041;BME280;5573;49.592;8.662;2023-04-28T11:03:54;99476.44;;;15.52;100.00
11041;BME280;5573;49.592;8.662;2023-04-28T11:06:31;99480.09;;;15.69;100.00
11041;BME280;5573;49.592;8.662;2023-04-28T11:09:02;99477.88;;;15.60;100.00
11041;BME280;5573;49.592;8.662;2023-04-28T11:11:30;99484.88;;;15.45;100.00
11041;BME280;5573;49.592;8.662;2023-04-28T11:14:33;99473.38;;;15.23;100.00
11041;BME280;5573;49.592;8.662;2023-04-28T11:17:03;99475.97;;;15.34;100.00
11041;BME280;5573;49.592;8.662;2023-04-28T11:19:32;99462.16;;;15.30;100.00
11041;BME280;5573;49.592;8.662;2023-04-28T11:22:03;99466.19;;;15.49;100.00
11041;BME280;5573;49.592;8.662;2023-04-28T11:24:35;99464.38;;;15.39;100.00
11041;BME280;5573;49.592;8.662;2023-04-28T11:27:03;99472.28;;;15.40;100.00
11041;BME280;5573;49.592;8.662;2023-04-28T11:29:32;99470.53;;;15.03;100.00
11041;BME280;5573;49.592;8.662;2023-04-28T11:32:01;99467.88;;;15.19;100.00
11041;BME280;5573;49.592;8.662;2023-04-28T11:34:29;99472.16;;;15.00;100.00
11041;BME280;5573;49.592;8.662;2023-04-28T11:36:57;99465.09;;;14.96;100.00
11041;BME280;5573;49.592;8.662;2023-04-28T11:39:27;99479.13;;;14.85;100.00
11041;BME280;5573;49.592;8.662;2023-04-28T11:41:56;99445.00;;;14.64;100.00
11041;BME280;5573;49.592;8.662;2023-04-28T11:44:25;99448.47;;;14.72;100.00
11041;BME280;5573;49.592;8.662;2023-04-28T11:46:54;99474.72;;;14.88;100.00
11041;BME280;5573;49.592;8.662;2023-04-28T11:49:23;99472.31;;;14.90;100.00
11041;BME280;5573;49.592;8.662;2023-04-28T11:51:51;99466.91;;;14.82;100.00
11041;BME280;5573;49.592;8.662;2023-04-28T11:54:21;99447.25;;;14.73;100.00
11041;BME280;5573;49.592;8.662;2023-04-28T11:56:51;99465.72;;;15.07;100.00
11041;BME280;5573;49.592;8.662;2023-04-28T11:59:23;99461.06;;;15.00;100.00
11041;BME280;5573;49.592;8.662;2023-04-28T12:01:54;99464.53;;;15.08;100.00
11041;BME280;5573;49.592;8.662;2023-04-28T12:04:27;99479.69;;;15.00;100.00
11041;BME280;5573;49.592;8.662;2023-04-28T12:06:59;99478.72;;;14.87;100.00
11041;BME280;5573;49.592;8.662;2023-04-28T12:09:32;99484.34;;;14.79;100.00
11041;BME280;5573;49.592;8.662;2023-04-28T12:12:03;99472.31;;;14.90;100.00
11041;BME280;5573;49.592;8.662;2023-04-28T12:14:32;99465.66;;;15.11;100.00
11041;BME280;5573;49.592;8.662;2023-04-28T12:17:01;99470.25;;;15.21;100.00
11041;BME280;5573;49.592;8.662;2023-04-28T12:19:42;99470.59;;;15.23;100.00
11041;BME280;5573;49.592;8.662;2023-04-28T12:22:10;99468.75;;;15.16;100.00
11041;BME280;5573;49.592;8.662;2023-04-28T12:24:38;99472.78;;;15.12;100.00
11041;BME280;5573;49.592;8.662;2023-04-28T12:27:18;99476.06;;;15.03;100.00
11041;BME280;5573;49.592;8.662;2023-04-28T12:29:47;99461.44;;;15.02;100.00
11041;BME280;5573;49.592;8.662;2023-04-28T12:32:15;99462.06;;;15.14;100.00
11041;BME280;5573;49.592;8.662;2023-04-28T12:34:44;99459.47;;;15.27;100.00
11041;BME280;5573;49.592;8.662;2023-04-28T12:37:12;99454.66;;;15.31;100.00
11041;BME280;5573;49.592;8.662;2023-04-28T12:39:41;99446.25;;;15.34;100.00
11041;BME280;5573;49.592;8.662;2023-04-28T12:42:09;99451.44;;;15.56;100.00
11041;BME280;5573;49.592;8.662;2023-04-28T12:44:38;99459.78;;;15.76;100.00
11041;BME280;5573;49.592;8.662;2023-04-28T12:47:08;99474.13;;;15.71;100.00
11041;BME280;5573;49.592;8.662;2023-04-28T12:49:36;99475.22;;;15.53;100.00
11041;BME280;5573;49.592;8.662;2023-04-28T12:52:05;99472.44;;;15.77;100.00
11041;BME280;5573;49.592;8.662;2023-04-28T12:54:33;99476.53;;;15.92;100.00
11041;BME280;5573;49.592;8.662;2023-04-28T12:57:01;99392.25;;;15.22;100.00
11041;BME280;5573;49.592;8.662;2023-04-28T12:59:29;99477.09;;;15.83;100.00
11041;BME280;5573;49.592;8.662;2023-04-28T13:01:59;99477.75;;;15.68;100.00
11041;BME280;5573;49.592;8.662;2023-04-28T13:04:27;99473.31;;;15.70;100.00
11041;BME280;5573;49.592;8.662;2023-04-28T13:06:56;99466.88;;;15.77;100.00
11041;BME280;5573;49.592;8.662;2023-04-28T13:09:24;99471.00;;;15.69;100.00
11041;BME280;5573;49.592;8.662;2023-04-28T13:11:52;99459.75;;;15.56;100.00
11041;BME280;5573;49.592;8.662;2023-04-28T13:14:20;99456.63;;;15.54;100.00
11041;BME280;5573;49.592;8.662;2023-04-28T13:16:47;99453.19;;;15.46;100.00
11041;BME280;5573;49.592;8.662;2023-04-28T13:19:18;99476.31;;;15.59;100.00
11041;BME280;5573;49.592;8.662;2023-04-28T13:21:46;99476.44;;;15.76;100.00